createdAt,value
2019-02-08T00:00:10.090Z,93.00
2019-02-08T00:00:37.387Z,92.90
2019-02-08T00:01:00.772Z,92.90
2019-02-08T00:01:24.452Z,92.80
2019-02-08T00:01:47.208Z,92.70
2019-02-08T00:02:10.139Z,92.80
2019-02-08T00:02:33.069Z,92.80
2019-02-08T00:02:55.896Z,92.60
2019-02-08T00:03:18.685Z,92.60
2019-02-08T00:03:41.813Z,92.70
2019-02-08T00:04:04.547Z,92.70
2019-02-08T00:04:27.455Z,92.80
2019-02-08T00:04:50.382Z,92.70
2019-02-08T00:05:13.255Z,92.70
2019-02-08T00:05:36.173Z,92.80
2019-02-08T00:05:59.091Z,92.70
2019-02-08T00:06:21.963Z,92.60
2019-02-08T00:06:44.732Z,92.60
2019-02-08T00:07:07.507Z,92.50
2019-02-08T00:07:30.723Z,92.70
2019-02-08T00:07:53.573Z,92.20
2019-02-08T00:08:16.408Z,92.00
2019-02-08T00:08:39.244Z,92.00
2019-02-08T00:09:02.043Z,92.10
2019-02-08T00:09:24.930Z,92.10
2019-02-08T00:09:47.801Z,92.00
2019-02-08T00:10:10.588Z,92.10
2019-02-08T00:10:33.448Z,92.10
2019-02-08T00:10:56.658Z,92.30
2019-02-08T00:11:19.580Z,92.40
2019-02-08T00:11:42.490Z,92.50
2019-02-08T00:12:05.337Z,92.50
2019-02-08T00:12:28.528Z,92.50
2019-02-08T00:12:51.487Z,92.70
2019-02-08T00:13:14.280Z,92.60
2019-02-08T00:13:37.027Z,92.80
2019-02-08T00:13:59.877Z,93.00
2019-02-08T00:14:23.109Z,92.70
2019-02-08T00:14:45.909Z,92.70
2019-02-08T00:15:09.947Z,92.90
2019-02-08T00:15:32.813Z,93.20
2019-02-08T00:15:55.957Z,93.00
2019-02-08T00:16:18.856Z,92.80
2019-02-08T00:16:42.508Z,92.70
2019-02-08T00:17:05.242Z,92.50
2019-02-08T00:17:28.107Z,92.40
2019-02-08T00:17:51.348Z,92.40
2019-02-08T00:18:14.428Z,92.50
2019-02-08T00:18:37.152Z,92.60
2019-02-08T00:19:00.447Z,92.50
2019-02-08T00:19:23.296Z,92.60
2019-02-08T00:19:46.370Z,92.40
2019-02-08T00:20:09.231Z,92.30
2019-02-08T00:20:31.981Z,92.20
2019-02-08T00:20:54.849Z,92.20
2019-02-08T00:21:17.753Z,92.20
2019-02-08T00:21:40.706Z,92.10
2019-02-08T00:22:03.540Z,92.10
2019-02-08T00:22:26.695Z,92.10
2019-02-08T00:22:49.609Z,92.10
2019-02-08T00:23:12.408Z,92.00
2019-02-08T00:23:35.938Z,91.90
2019-02-08T00:23:58.749Z,91.80
2019-02-08T00:24:21.505Z,92.00
2019-02-08T00:24:44.876Z,92.60
2019-02-08T00:25:07.811Z,92.10
2019-02-08T00:25:30.612Z,92.60
2019-02-08T00:25:54.650Z,92.30
2019-02-08T00:26:17.471Z,92.20
2019-02-08T00:26:40.310Z,92.10
2019-02-08T00:27:03.551Z,92.00
2019-02-08T00:27:26.376Z,92.10
2019-02-08T00:27:49.306Z,92.20
2019-02-08T00:28:12.592Z,92.10
2019-02-08T00:28:35.390Z,92.90
2019-02-08T00:28:58.270Z,93.10
2019-02-08T00:29:21.917Z,93.20
2019-02-08T00:29:44.715Z,93.10
2019-02-08T00:30:07.680Z,92.80
2019-02-08T00:30:31.333Z,93.00
2019-02-08T00:30:54.146Z,93.00
2019-02-08T00:31:17.057Z,92.70
2019-02-08T00:31:40.176Z,92.50
2019-02-08T00:32:02.913Z,92.50
2019-02-08T00:32:25.869Z,92.40
2019-02-08T00:32:48.813Z,92.50
2019-02-08T00:33:11.709Z,92.40
2019-02-08T00:33:34.596Z,92.30
2019-02-08T00:33:58.065Z,92.30
2019-02-08T00:34:20.876Z,92.30
2019-02-08T00:34:43.698Z,92.30
2019-02-08T00:35:06.988Z,92.30
2019-02-08T00:35:29.828Z,92.40
2019-02-08T00:35:54.530Z,92.40
2019-02-08T00:36:17.016Z,92.50
2019-02-08T00:36:39.814Z,92.50
2019-02-08T00:37:03.029Z,92.40
2019-02-08T00:37:26.467Z,92.30
2019-02-08T00:37:49.381Z,92.20
2019-02-08T00:38:12.227Z,92.20
2019-02-08T00:38:35.334Z,92.60
2019-02-08T00:38:58.129Z,92.50
2019-02-08T00:39:20.908Z,92.70
2019-02-08T00:39:44.400Z,93.10
2019-02-08T00:40:07.264Z,92.70
2019-02-08T00:40:30.168Z,92.50
2019-02-08T00:40:53.528Z,92.40
2019-02-08T00:41:16.330Z,92.30
2019-02-08T00:41:39.212Z,92.40
2019-02-08T00:42:02.688Z,92.10
2019-02-08T00:42:25.556Z,92.00
2019-02-08T00:42:48.348Z,92.10
2019-02-08T00:43:11.848Z,92.00
2019-02-08T00:43:34.690Z,92.00
2019-02-08T00:43:57.648Z,92.00
2019-02-08T00:44:20.769Z,92.00
2019-02-08T00:44:43.528Z,92.30
2019-02-08T00:45:06.681Z,92.30
2019-02-08T00:45:29.987Z,92.30
2019-02-08T00:45:52.848Z,92.60
2019-02-08T00:46:15.566Z,92.20
2019-02-08T00:46:38.750Z,92.30
2019-02-08T00:47:01.515Z,92.30
2019-02-08T00:47:24.379Z,92.20
2019-02-08T00:47:48.023Z,92.40
2019-02-08T00:48:10.769Z,93.00
2019-02-08T00:48:33.629Z,92.60
2019-02-08T00:48:57.489Z,92.40
2019-02-08T00:49:20.452Z,92.30
2019-02-08T00:49:43.228Z,92.30
2019-02-08T00:50:06.608Z,92.70
2019-02-08T00:50:29.428Z,92.80
2019-02-08T00:50:52.288Z,92.60
2019-02-08T00:51:15.819Z,92.30
2019-02-08T00:51:38.689Z,92.30
2019-02-08T00:52:01.468Z,92.20
2019-02-08T00:52:24.488Z,92.30
2019-02-08T00:52:47.697Z,92.10
2019-02-08T00:53:10.775Z,92.20
2019-02-08T00:53:33.807Z,92.00
2019-02-08T00:53:56.638Z,92.20
2019-02-08T00:54:19.528Z,92.40
2019-02-08T00:54:42.976Z,92.50
2019-02-08T00:55:05.848Z,92.70
2019-02-08T00:55:28.625Z,92.10
2019-02-08T00:55:52.128Z,91.90
2019-02-08T00:56:14.989Z,92.10
2019-02-08T00:56:38.308Z,92.10
2019-02-08T00:57:01.937Z,92.20
2019-02-08T00:57:24.929Z,92.30
2019-02-08T00:57:47.829Z,92.60
2019-02-08T00:58:11.529Z,92.50
2019-02-08T00:58:35.288Z,92.40
2019-02-08T00:58:58.218Z,92.40
2019-02-08T00:59:21.584Z,92.50
2019-02-08T00:59:44.368Z,92.30
2019-02-08T01:00:07.229Z,92.10
2019-02-08T01:00:30.532Z,92.00
2019-02-08T01:00:53.469Z,91.90
2019-02-08T01:01:16.317Z,91.90
2019-02-08T01:01:40.030Z,91.90
2019-02-08T01:02:02.749Z,92.20
2019-02-08T01:02:25.667Z,92.30
2019-02-08T01:02:49.137Z,91.90
2019-02-08T01:03:11.948Z,91.90
2019-02-08T01:03:34.852Z,91.60
2019-02-08T01:03:58.569Z,91.60
2019-02-08T01:04:21.409Z,92.30
2019-02-08T01:04:44.228Z,92.00
2019-02-08T01:05:07.838Z,92.40
2019-02-08T01:05:31.268Z,92.20
2019-02-08T01:05:54.148Z,92.00
2019-02-08T01:06:17.527Z,91.90
2019-02-08T01:06:40.896Z,91.80
2019-02-08T01:07:03.717Z,91.70
2019-02-08T01:07:27.808Z,91.60
2019-02-08T01:07:50.588Z,91.50
2019-02-08T01:08:13.548Z,91.70
2019-02-08T01:08:36.710Z,91.60
2019-02-08T01:08:59.548Z,91.60
2019-02-08T01:09:22.430Z,91.80
2019-02-08T01:09:47.447Z,92.40
2019-02-08T01:10:10.747Z,92.30
2019-02-08T01:10:33.612Z,92.10
2019-02-08T01:10:57.309Z,91.90
2019-02-08T01:11:20.470Z,91.80
2019-02-08T01:11:43.629Z,91.70
2019-02-08T01:12:06.468Z,91.70
2019-02-08T01:12:29.270Z,92.10
2019-02-08T01:12:52.208Z,91.30
2019-02-08T01:13:15.729Z,91.00
2019-02-08T01:13:39.188Z,91.00
2019-02-08T01:14:01.933Z,90.70
2019-02-08T01:14:24.869Z,90.90
2019-02-08T01:14:47.731Z,90.90
2019-02-08T01:15:10.649Z,90.80
2019-02-08T01:15:34.048Z,91.10
2019-02-08T01:15:56.989Z,91.00
2019-02-08T01:16:19.829Z,90.80
2019-02-08T01:16:43.051Z,90.90
2019-02-08T01:17:07.528Z,90.70
2019-02-08T01:17:30.531Z,91.00
2019-02-08T01:17:53.552Z,90.60
2019-02-08T01:18:16.567Z,90.70
2019-02-08T01:18:39.469Z,90.80
2019-02-08T01:19:02.323Z,90.90
2019-02-08T01:19:25.869Z,90.80
2019-02-08T01:19:48.789Z,91.10
2019-02-08T01:20:11.709Z,91.50
2019-02-08T01:20:34.589Z,91.50
2019-02-08T01:20:58.089Z,91.40
2019-02-08T01:21:21.128Z,91.50
2019-02-08T01:21:44.191Z,91.80
2019-02-08T01:22:07.108Z,91.50
2019-02-08T01:22:30.309Z,91.50
2019-02-08T01:22:53.009Z,91.60
2019-02-08T01:23:16.489Z,91.90
2019-02-08T01:23:41.191Z,91.60
2019-02-08T01:24:04.369Z,91.60
2019-02-08T01:24:27.150Z,91.40
2019-02-08T01:24:50.109Z,91.40
2019-02-08T01:25:13.028Z,91.30
2019-02-08T01:25:35.829Z,91.00
2019-02-08T01:25:58.709Z,91.10
2019-02-08T01:26:21.569Z,91.10
2019-02-08T01:26:44.549Z,91.10
2019-02-08T01:27:07.769Z,91.00
2019-02-08T01:27:30.729Z,91.30
2019-02-08T01:27:53.588Z,91.60
2019-02-08T01:28:16.350Z,91.70
2019-02-08T01:28:39.309Z,92.00
2019-02-08T01:29:02.050Z,91.60
2019-02-08T01:29:25.069Z,91.80
2019-02-08T01:29:48.030Z,91.70
2019-02-08T01:30:11.009Z,91.80
2019-02-08T01:30:33.930Z,91.80
2019-02-08T01:30:58.050Z,91.60
2019-02-08T01:31:21.408Z,91.40
2019-02-08T01:31:44.389Z,91.40
2019-02-08T01:32:07.569Z,91.60
2019-02-08T01:32:30.509Z,91.90
2019-02-08T01:32:53.828Z,91.80
2019-02-08T01:33:16.609Z,91.80
2019-02-08T01:33:39.629Z,91.60
2019-02-08T01:34:02.511Z,91.60
2019-02-08T01:34:25.428Z,91.50
2019-02-08T01:34:48.409Z,91.40
2019-02-08T01:35:11.228Z,91.50
2019-02-08T01:35:34.128Z,91.30
2019-02-08T01:35:57.248Z,91.10
2019-02-08T01:36:20.329Z,91.10
2019-02-08T01:36:43.287Z,90.70
2019-02-08T01:37:06.149Z,91.40
2019-02-08T01:37:29.649Z,91.50
2019-02-08T01:37:52.489Z,91.20
2019-02-08T01:38:15.610Z,91.50
2019-02-08T01:38:38.369Z,91.60
2019-02-08T01:39:01.590Z,91.80
2019-02-08T01:39:24.549Z,92.00
2019-02-08T01:39:47.328Z,92.00
2019-02-08T01:40:10.294Z,92.20
2019-02-08T01:40:33.354Z,92.00
2019-02-08T01:40:56.149Z,92.00
2019-02-08T01:41:19.110Z,91.90
2019-02-08T01:41:41.909Z,91.90
2019-02-08T01:42:05.053Z,92.00
2019-02-08T01:42:27.969Z,92.10
2019-02-08T01:42:50.989Z,92.30
2019-02-08T01:43:13.889Z,92.50
2019-02-08T01:43:36.790Z,92.60
2019-02-08T01:43:59.669Z,92.40
2019-02-08T01:44:23.809Z,92.20
2019-02-08T01:44:46.709Z,92.20
2019-02-08T01:45:09.569Z,91.70
2019-02-08T01:45:32.494Z,91.90
2019-02-08T01:45:55.448Z,92.00
2019-02-08T01:46:18.556Z,92.00
2019-02-08T01:46:41.468Z,91.90
2019-02-08T01:47:04.447Z,92.00
2019-02-08T01:47:27.328Z,92.00
2019-02-08T01:47:50.367Z,92.10
2019-02-08T01:48:13.768Z,92.00
2019-02-08T01:48:37.190Z,91.90
2019-02-08T01:49:00.008Z,91.90
2019-02-08T01:49:22.859Z,92.00
2019-02-08T01:49:46.369Z,91.90
2019-02-08T01:50:09.729Z,91.50
2019-02-08T01:50:32.628Z,90.90
2019-02-08T01:50:55.791Z,91.00
2019-02-08T01:51:18.615Z,91.30
2019-02-08T01:51:41.569Z,91.40
2019-02-08T01:52:04.408Z,91.60
2019-02-08T01:52:27.329Z,91.60
2019-02-08T01:52:50.330Z,92.00
2019-02-08T01:53:13.330Z,92.30
2019-02-08T01:53:36.129Z,92.00
2019-02-08T01:53:59.308Z,92.20
2019-02-08T01:54:22.528Z,92.10
2019-02-08T01:54:45.529Z,92.10
2019-02-08T01:55:08.388Z,92.10
2019-02-08T01:55:31.236Z,92.20
2019-02-08T01:55:55.107Z,92.90
2019-02-08T01:56:17.988Z,92.90
2019-02-08T01:56:40.889Z,92.80
2019-02-08T01:57:03.609Z,92.50
2019-02-08T01:57:26.467Z,92.50
2019-02-08T01:57:49.428Z,92.30
2019-02-08T01:58:12.732Z,92.20
2019-02-08T01:58:35.709Z,92.20
2019-02-08T01:58:58.569Z,92.10
2019-02-08T01:59:21.740Z,92.40
2019-02-08T01:59:44.609Z,92.10
2019-02-08T02:00:07.509Z,92.30
2019-02-08T02:00:30.390Z,92.30
2019-02-08T02:00:53.309Z,92.20
2019-02-08T02:01:16.147Z,92.40
2019-02-08T02:01:39.129Z,92.50
2019-02-08T02:02:01.884Z,92.60
2019-02-08T02:02:24.708Z,92.50
2019-02-08T02:02:48.064Z,92.30
2019-02-08T02:03:11.091Z,92.30
2019-02-08T02:03:33.987Z,92.30
2019-02-08T02:03:56.953Z,92.20
2019-02-08T02:04:19.928Z,92.10
2019-02-08T02:04:42.888Z,92.20
2019-02-08T02:05:05.761Z,91.90
2019-02-08T02:05:28.589Z,91.80
2019-02-08T02:05:51.549Z,91.90
2019-02-08T02:06:14.390Z,91.90
2019-02-08T02:06:37.208Z,91.70
2019-02-08T02:07:00.208Z,91.50
2019-02-08T02:07:23.008Z,91.60
2019-02-08T02:07:45.909Z,91.60
2019-02-08T02:08:09.668Z,91.70
2019-02-08T02:08:32.812Z,91.50
2019-02-08T02:08:55.668Z,91.40
2019-02-08T02:09:18.628Z,91.20
2019-02-08T02:09:41.409Z,91.10
2019-02-08T02:10:04.128Z,91.10
2019-02-08T02:10:27.568Z,91.10
2019-02-08T02:10:50.369Z,91.00
2019-02-08T02:11:13.109Z,90.80
2019-02-08T02:11:36.010Z,90.90
2019-02-08T02:11:58.933Z,91.10
2019-02-08T02:12:21.709Z,91.20
2019-02-08T02:12:44.529Z,91.20
2019-02-08T02:13:08.851Z,91.10
2019-02-08T02:13:31.689Z,91.10
2019-02-08T02:13:54.551Z,91.10
2019-02-08T02:14:18.069Z,91.20
2019-02-08T02:14:41.037Z,91.20
2019-02-08T02:15:03.768Z,91.20
2019-02-08T02:15:26.668Z,91.30
2019-02-08T02:15:49.569Z,91.40
2019-02-08T02:16:12.448Z,91.20
2019-02-08T02:16:35.708Z,91.30
2019-02-08T02:16:58.569Z,91.20
2019-02-08T02:17:22.168Z,91.20
2019-02-08T02:17:45.128Z,91.20
2019-02-08T02:18:08.457Z,91.20
2019-02-08T02:18:31.261Z,91.10
2019-02-08T02:18:54.148Z,91.00
2019-02-08T02:19:16.951Z,91.10
2019-02-08T02:19:39.828Z,91.10
2019-02-08T02:20:02.611Z,91.00
2019-02-08T02:20:25.738Z,90.80
2019-02-08T02:20:48.608Z,90.80
2019-02-08T02:21:11.488Z,90.20
2019-02-08T02:21:34.438Z,90.50
2019-02-08T02:21:57.347Z,90.70
2019-02-08T02:22:20.168Z,91.00
2019-02-08T02:22:43.069Z,90.60
2019-02-08T02:23:05.929Z,90.70
2019-02-08T02:23:29.129Z,90.80
2019-02-08T02:23:56.204Z,90.80
2019-02-08T02:24:16.430Z,91.00
2019-02-08T02:24:39.270Z,90.90
2019-02-08T02:25:02.034Z,90.90
2019-02-08T02:25:24.909Z,90.70
2019-02-08T02:25:47.806Z,91.00
2019-02-08T02:26:10.728Z,91.00
2019-02-08T02:26:33.749Z,90.90
2019-02-08T02:26:57.089Z,91.00
2019-02-08T02:27:19.850Z,90.90
2019-02-08T02:27:42.849Z,90.90
2019-02-08T02:28:05.889Z,90.90
2019-02-08T02:28:28.735Z,90.80
2019-02-08T02:28:51.989Z,91.20
2019-02-08T02:29:14.849Z,91.00
2019-02-08T02:29:37.708Z,90.90
2019-02-08T02:30:01.079Z,91.20
2019-02-08T02:30:24.190Z,91.20
2019-02-08T02:30:47.380Z,91.00
2019-02-08T02:31:10.250Z,91.00
2019-02-08T02:31:33.548Z,90.80
2019-02-08T02:31:56.528Z,90.80
2019-02-08T02:32:19.472Z,90.90
2019-02-08T02:32:42.352Z,91.00
2019-02-08T02:33:07.154Z,91.10
2019-02-08T02:33:30.157Z,91.20
2019-02-08T02:33:53.409Z,91.20
2019-02-08T02:34:16.229Z,91.20
2019-02-08T02:34:38.948Z,91.30
2019-02-08T02:35:02.169Z,91.20
2019-02-08T02:35:25.011Z,91.10
2019-02-08T02:35:48.371Z,91.10
2019-02-08T02:36:11.188Z,90.80
2019-02-08T02:36:34.089Z,90.90
2019-02-08T02:36:57.214Z,91.00
2019-02-08T02:37:20.669Z,91.10
2019-02-08T02:37:43.448Z,91.10
2019-02-08T02:38:06.389Z,91.20
2019-02-08T02:38:29.394Z,91.30
2019-02-08T02:38:52.370Z,91.20
2019-02-08T02:39:15.209Z,91.10
2019-02-08T02:39:38.089Z,91.10
2019-02-08T02:40:01.008Z,91.00
2019-02-08T02:40:23.848Z,91.00
2019-02-08T02:40:46.726Z,90.90
2019-02-08T02:41:09.890Z,90.90
2019-02-08T02:41:32.728Z,90.90
2019-02-08T02:41:55.620Z,90.90
2019-02-08T02:42:18.629Z,90.90
2019-02-08T02:42:41.970Z,90.70
2019-02-08T02:43:04.829Z,91.00
2019-02-08T02:43:27.630Z,90.90
2019-02-08T02:43:50.490Z,90.90
2019-02-08T02:44:13.289Z,90.90
2019-02-08T02:44:36.230Z,90.80
2019-02-08T02:44:59.050Z,90.80
2019-02-08T02:45:21.969Z,90.50
2019-02-08T02:45:44.815Z,90.20
2019-02-08T02:46:07.610Z,90.40
2019-02-08T02:46:30.490Z,90.70
2019-02-08T02:46:53.356Z,90.80
2019-02-08T02:47:16.310Z,90.80
2019-02-08T02:47:39.209Z,90.80
2019-02-08T02:48:02.449Z,90.60
2019-02-08T02:48:25.332Z,90.30
2019-02-08T02:48:48.309Z,90.10
2019-02-08T02:49:11.648Z,90.00
2019-02-08T02:49:34.526Z,89.30
2019-02-08T02:49:57.888Z,89.60
2019-02-08T02:50:20.808Z,89.80
2019-02-08T02:50:43.750Z,90.60
2019-02-08T02:51:06.581Z,91.00
2019-02-08T02:51:29.649Z,91.10
2019-02-08T02:51:52.493Z,91.10
2019-02-08T02:52:15.347Z,90.80
2019-02-08T02:52:38.788Z,90.80
2019-02-08T02:53:01.523Z,90.40
2019-02-08T02:53:24.401Z,90.20
2019-02-08T02:53:47.369Z,90.40
2019-02-08T02:54:10.230Z,90.40
2019-02-08T02:54:34.011Z,90.30
2019-02-08T02:54:57.429Z,90.30
2019-02-08T02:55:20.419Z,90.20
2019-02-08T02:55:43.371Z,90.00
2019-02-08T02:56:06.210Z,90.00
2019-02-08T02:56:30.570Z,90.30
2019-02-08T02:56:53.429Z,90.40
2019-02-08T02:57:16.369Z,90.30
2019-02-08T02:57:39.215Z,90.10
2019-02-08T02:58:02.200Z,90.00
2019-02-08T02:58:25.010Z,90.00
2019-02-08T02:58:47.848Z,89.90
2019-02-08T02:59:10.663Z,89.70
2019-02-08T02:59:34.033Z,89.70
2019-02-08T02:59:57.009Z,89.80
2019-02-08T03:00:19.947Z,90.20
2019-02-08T03:00:42.719Z,90.30
2019-02-08T03:01:05.609Z,89.80
2019-02-08T03:01:28.491Z,90.00
2019-02-08T03:01:51.388Z,89.50
2019-02-08T03:02:14.248Z,90.00
2019-02-08T03:02:37.051Z,90.30
2019-02-08T03:02:59.972Z,90.30
2019-02-08T03:03:22.895Z,90.80
2019-02-08T03:03:45.970Z,91.10
2019-02-08T03:04:08.977Z,90.90
2019-02-08T03:04:31.829Z,91.20
2019-02-08T03:04:54.709Z,91.10
2019-02-08T03:05:17.807Z,91.20
2019-02-08T03:05:40.870Z,91.60
2019-02-08T03:06:03.648Z,91.70
2019-02-08T03:06:26.471Z,91.50
2019-02-08T03:06:49.428Z,91.40
2019-02-08T03:07:12.289Z,91.10
2019-02-08T03:07:35.129Z,91.30
2019-02-08T03:07:57.889Z,91.40
2019-02-08T03:08:20.689Z,91.30
2019-02-08T03:08:43.589Z,91.50
2019-02-08T03:09:07.009Z,91.60
2019-02-08T03:09:29.948Z,91.70
2019-02-08T03:09:53.089Z,91.80
2019-02-08T03:10:15.908Z,91.90
2019-02-08T03:10:38.768Z,91.30
2019-02-08T03:11:01.593Z,91.30
2019-02-08T03:11:24.471Z,91.10
2019-02-08T03:11:47.248Z,90.70
2019-02-08T03:12:10.589Z,90.30
2019-02-08T03:12:33.988Z,90.00
2019-02-08T03:12:56.910Z,90.10
2019-02-08T03:13:20.128Z,90.30
2019-02-08T03:13:43.008Z,89.80
2019-02-08T03:14:06.268Z,89.90
2019-02-08T03:14:29.572Z,89.10
2019-02-08T03:14:52.448Z,89.80
2019-02-08T03:15:15.688Z,90.40
2019-02-08T03:15:39.009Z,90.50
2019-02-08T03:16:03.310Z,90.60
2019-02-08T03:16:26.548Z,90.60
2019-02-08T03:16:49.448Z,90.40
2019-02-08T03:17:12.288Z,90.40
2019-02-08T03:17:35.549Z,90.50
2019-02-08T03:17:58.428Z,90.60
2019-02-08T03:18:21.628Z,90.80
2019-02-08T03:18:44.589Z,90.80
2019-02-08T03:19:07.369Z,90.30
2019-02-08T03:19:30.208Z,90.30
2019-02-08T03:19:53.135Z,90.50
2019-02-08T03:20:16.191Z,90.50
2019-02-08T03:20:39.489Z,90.30
2019-02-08T03:21:02.411Z,90.60
2019-02-08T03:21:25.348Z,90.70
2019-02-08T03:21:48.569Z,90.70
2019-02-08T03:22:11.409Z,90.80
2019-02-08T03:22:34.308Z,90.60
2019-02-08T03:22:57.168Z,90.30
2019-02-08T03:23:20.209Z,90.20
2019-02-08T03:23:43.049Z,90.20
2019-02-08T03:24:12.901Z,89.80
2019-02-08T03:24:31.308Z,90.00
2019-02-08T03:24:54.231Z,90.20
2019-02-08T03:25:17.289Z,90.80
2019-02-08T03:25:40.288Z,91.30
2019-02-08T03:26:03.044Z,91.50
2019-02-08T03:26:26.370Z,91.30
2019-02-08T03:26:49.109Z,91.10
2019-02-08T03:27:12.069Z,91.00
2019-02-08T03:27:34.787Z,91.00
2019-02-08T03:27:57.729Z,90.90
2019-02-08T03:28:20.908Z,91.10
2019-02-08T03:28:43.748Z,91.00
2019-02-08T03:29:06.575Z,90.90
2019-02-08T03:29:29.729Z,90.80
2019-02-08T03:29:53.882Z,90.80
2019-02-08T03:30:18.690Z,90.70
2019-02-08T03:30:52.396Z,90.70
2019-02-08T03:31:15.350Z,90.50
2019-02-08T03:31:38.170Z,90.50
2019-02-08T03:32:01.075Z,90.70
2019-02-08T03:32:23.965Z,90.80
2019-02-08T03:32:47.890Z,90.30
2019-02-08T03:33:10.814Z,90.00
2019-02-08T03:33:34.310Z,89.80
2019-02-08T03:33:57.133Z,90.10
2019-02-08T03:34:19.993Z,89.80
2019-02-08T03:34:42.950Z,89.90
2019-02-08T03:35:05.732Z,89.50
2019-02-08T03:35:28.558Z,89.40
2019-02-08T03:35:51.848Z,89.00
2019-02-08T03:36:14.808Z,87.60
2019-02-08T03:36:37.574Z,87.30
2019-02-08T03:37:00.368Z,89.30
2019-02-08T03:37:23.668Z,89.80
2019-02-08T03:37:46.409Z,90.10
2019-02-08T03:38:09.288Z,90.10
2019-02-08T03:38:32.408Z,90.20
2019-02-08T03:38:56.048Z,90.30
2019-02-08T03:39:18.988Z,90.40
2019-02-08T03:39:41.770Z,90.50
2019-02-08T03:40:04.648Z,90.20
2019-02-08T03:40:27.930Z,89.40
2019-02-08T03:40:50.810Z,88.00
2019-02-08T03:41:13.668Z,87.40
2019-02-08T03:41:36.570Z,88.30
2019-02-08T03:41:59.348Z,89.00
2019-02-08T03:42:22.210Z,89.20
2019-02-08T03:42:45.509Z,89.80
2019-02-08T03:43:08.930Z,90.00
2019-02-08T03:43:31.970Z,88.80
2019-02-08T03:43:54.851Z,88.70
2019-02-08T03:44:18.049Z,89.50
2019-02-08T03:44:40.969Z,89.70
2019-02-08T03:45:03.689Z,89.50
2019-02-08T03:45:28.130Z,89.00
2019-02-08T03:45:52.576Z,89.20
2019-02-08T03:46:15.633Z,88.40
2019-02-08T03:46:38.449Z,88.40
2019-02-08T03:47:01.369Z,87.60
2019-02-08T03:47:24.328Z,87.70
2019-02-08T03:47:47.288Z,87.60
2019-02-08T03:48:10.148Z,87.60
2019-02-08T03:48:33.028Z,88.40
2019-02-08T03:48:55.971Z,87.40
2019-02-08T03:49:18.929Z,87.40
2019-02-08T03:49:41.748Z,87.10
2019-02-08T03:50:04.589Z,87.40
2019-02-08T03:50:27.618Z,87.40
2019-02-08T03:50:50.431Z,87.00
2019-02-08T03:51:13.209Z,86.60
2019-02-08T03:51:36.029Z,87.10
2019-02-08T03:51:58.907Z,87.60
2019-02-08T03:52:22.330Z,87.20
2019-02-08T03:52:45.230Z,87.40
2019-02-08T03:53:08.069Z,87.70
2019-02-08T03:53:31.018Z,87.90
2019-02-08T03:53:54.048Z,88.00
2019-02-08T03:54:21.126Z,87.80
2019-02-08T03:54:41.295Z,88.20
2019-02-08T03:55:04.178Z,88.20
2019-02-08T03:55:27.088Z,87.80
2019-02-08T03:55:58.002Z,88.30
2019-02-08T03:56:14.929Z,88.60
2019-02-08T03:56:37.827Z,88.00
2019-02-08T03:57:00.669Z,88.20
2019-02-08T03:57:23.508Z,87.60
2019-02-08T03:57:46.250Z,88.00
2019-02-08T03:58:09.269Z,88.20
2019-02-08T03:58:32.197Z,88.30
2019-02-08T03:58:55.549Z,87.90
2019-02-08T03:59:18.510Z,87.70
2019-02-08T03:59:41.888Z,87.70
2019-02-08T04:00:04.811Z,87.60
2019-02-08T04:00:29.218Z,87.00
2019-02-08T04:01:02.800Z,87.10
2019-02-08T04:01:25.668Z,87.60
2019-02-08T04:01:48.552Z,87.50
2019-02-08T04:02:11.653Z,87.90
2019-02-08T04:02:34.648Z,88.30
2019-02-08T04:02:59.267Z,88.30
2019-02-08T04:03:22.131Z,87.80
2019-02-08T04:03:44.988Z,87.80
2019-02-08T04:04:08.448Z,88.80
2019-02-08T04:04:31.268Z,87.70
2019-02-08T04:04:54.070Z,88.80
2019-02-08T04:05:17.270Z,88.50
2019-02-08T04:05:40.229Z,88.10
2019-02-08T04:06:02.928Z,87.30
2019-02-08T04:06:25.768Z,87.10
2019-02-08T04:06:48.568Z,87.50
2019-02-08T04:07:11.467Z,88.10
2019-02-08T04:07:34.869Z,88.80
2019-02-08T04:07:57.870Z,88.30
2019-02-08T04:08:20.816Z,89.20
2019-02-08T04:08:43.630Z,87.50
2019-02-08T04:09:06.730Z,87.20
2019-02-08T04:09:29.628Z,87.30
2019-02-08T04:09:52.547Z,88.10
2019-02-08T04:10:15.449Z,86.70
2019-02-08T04:10:38.530Z,85.90
2019-02-08T04:11:01.373Z,85.80
2019-02-08T04:11:24.233Z,85.60
2019-02-08T04:11:47.148Z,85.50
2019-02-08T04:12:10.110Z,85.40
2019-02-08T04:12:33.028Z,85.80
2019-02-08T04:12:55.749Z,85.80
2019-02-08T04:13:18.707Z,85.50
2019-02-08T04:13:41.887Z,85.20
2019-02-08T04:14:04.868Z,85.00
2019-02-08T04:14:27.649Z,85.40
2019-02-08T04:14:50.770Z,85.10
2019-02-08T04:15:14.049Z,84.20
2019-02-08T04:15:37.029Z,84.10
2019-02-08T04:16:00.028Z,83.60
2019-02-08T04:16:22.928Z,83.80
2019-02-08T04:16:45.750Z,83.70
2019-02-08T04:17:08.608Z,84.40
2019-02-08T04:17:31.972Z,83.80
2019-02-08T04:17:55.048Z,84.30
2019-02-08T04:18:18.411Z,86.00
2019-02-08T04:18:42.587Z,86.00
2019-02-08T04:19:06.098Z,86.40
2019-02-08T04:19:29.090Z,86.30
2019-02-08T04:19:51.990Z,85.40
2019-02-08T04:20:14.849Z,85.50
2019-02-08T04:20:37.649Z,86.00
2019-02-08T04:21:00.553Z,86.00
2019-02-08T04:21:23.349Z,85.90
2019-02-08T04:21:46.228Z,86.30
2019-02-08T04:22:09.088Z,86.60
2019-02-08T04:22:31.969Z,86.70
2019-02-08T04:22:55.290Z,84.20
2019-02-08T04:23:18.128Z,84.90
2019-02-08T04:23:41.368Z,86.60
2019-02-08T04:24:04.130Z,87.30
2019-02-08T04:24:29.867Z,86.60
2019-02-08T04:24:51.650Z,87.40
2019-02-08T04:25:14.428Z,88.00
2019-02-08T04:25:37.267Z,88.50
2019-02-08T04:26:00.768Z,86.20
2019-02-08T04:26:24.128Z,85.60
2019-02-08T04:26:47.528Z,85.30
2019-02-08T04:27:10.467Z,85.20
2019-02-08T04:27:33.208Z,86.20
2019-02-08T04:27:56.148Z,86.80
2019-02-08T04:28:19.508Z,87.30
2019-02-08T04:28:42.350Z,87.20
2019-02-08T04:29:05.169Z,86.00
2019-02-08T04:29:28.067Z,85.90
2019-02-08T04:29:50.928Z,86.80
2019-02-08T04:30:13.827Z,87.00
2019-02-08T04:30:36.851Z,86.30
2019-02-08T04:30:59.752Z,85.50
2019-02-08T04:31:22.690Z,84.80
2019-02-08T04:31:45.648Z,84.40
2019-02-08T04:32:08.769Z,85.00
2019-02-08T04:32:32.130Z,84.70
2019-02-08T04:32:55.149Z,83.10
2019-02-08T04:33:18.072Z,83.10
2019-02-08T04:33:41.309Z,84.50
2019-02-08T04:34:04.128Z,82.90
2019-02-08T04:34:27.331Z,82.40
2019-02-08T04:34:50.148Z,82.20
2019-02-08T04:35:12.950Z,83.30
2019-02-08T04:35:35.828Z,85.60
2019-02-08T04:35:58.591Z,83.40
2019-02-08T04:36:21.356Z,83.20
2019-02-08T04:36:44.608Z,83.00
2019-02-08T04:37:08.069Z,83.50
2019-02-08T04:37:30.947Z,84.00
2019-02-08T04:37:53.630Z,85.10
2019-02-08T04:38:16.488Z,85.20
2019-02-08T04:38:39.788Z,85.10
2019-02-08T04:39:02.612Z,84.50
2019-02-08T04:39:25.906Z,85.30
2019-02-08T04:39:48.888Z,86.00
2019-02-08T04:40:11.893Z,85.70
2019-02-08T04:40:34.790Z,86.00
2019-02-08T04:40:58.031Z,86.20
2019-02-08T04:41:20.930Z,83.30
2019-02-08T04:41:44.290Z,82.60
2019-02-08T04:42:07.278Z,82.70
2019-02-08T04:42:30.155Z,83.10
2019-02-08T04:42:52.991Z,83.70
2019-02-08T04:43:15.890Z,82.70
2019-02-08T04:43:38.715Z,81.80
2019-02-08T04:44:01.593Z,83.70
2019-02-08T04:44:24.489Z,85.20
2019-02-08T04:44:47.467Z,85.50
2019-02-08T04:45:10.367Z,81.90
2019-02-08T04:45:33.668Z,80.70
2019-02-08T04:45:56.510Z,80.00
2019-02-08T04:46:19.247Z,79.50
2019-02-08T04:46:42.107Z,80.70
2019-02-08T04:47:05.408Z,81.40
2019-02-08T04:47:28.330Z,82.00
2019-02-08T04:47:51.287Z,81.50
2019-02-08T04:48:14.208Z,82.60
2019-02-08T04:48:36.968Z,85.00
2019-02-08T04:48:59.848Z,86.10
2019-02-08T04:49:22.648Z,86.10
2019-02-08T04:49:45.829Z,86.30
2019-02-08T04:50:08.708Z,85.10
2019-02-08T04:50:31.583Z,85.90
2019-02-08T04:50:54.348Z,86.40
2019-02-08T04:51:17.990Z,86.50
2019-02-08T04:51:40.888Z,86.40
2019-02-08T04:52:03.607Z,87.10
2019-02-08T04:52:26.490Z,86.90
2019-02-08T04:52:49.708Z,86.30
2019-02-08T04:53:13.189Z,85.60
2019-02-08T04:53:36.071Z,84.80
2019-02-08T04:53:58.910Z,84.30
2019-02-08T04:54:21.810Z,84.20
2019-02-08T04:54:44.715Z,84.40
2019-02-08T04:55:07.528Z,84.50
2019-02-08T04:55:30.331Z,84.50
2019-02-08T04:55:53.110Z,84.30
2019-02-08T04:56:16.068Z,84.50
2019-02-08T04:56:39.049Z,85.50
2019-02-08T04:57:01.941Z,85.70